Time;durP1;ratioP1;P1;durP2;ratioP2;P2;SDS_P1;SDS_P2;PMS_P1;PMS_P2;Temp;Humidity;BMP_temperature;BMP_pressure;BME280_temperature;BME280_humidity;BME280_pressure;Samples;Min_cycle;Max_cycle;Signal;HPM_P1;HPM_P2
2022/08/12 00:43:42;;;;;;;;;;;;;;;-145.18;100.00;47168.28;5071959;28;19928;-69
2022/08/12 00:48:51;;;;;;;;;;;;;;;-145.18;100.00;47109.69;5071664;28;19923;-69
2022/08/12 00:51:17;;;;;;;;;;;;;;;-145.18;100.00;47023.72;5071354;28;20019;-69
2022/08/12 00:53:42;;;;;;;;;;;;;;;-145.18;100.00;47004.19;5071780;28;19916;-69
2022/08/12 00:56:07;;;;;;;;;;;;;;;-145.18;100.00;46910.44;5071555;28;20296;-69
2022/08/12 00:58:33;;;;;;;;;;;;;;;-145.18;100.00;46748.28;5071298;28;19916;-69
2022/08/12 01:01:03;;;;;;;;;;;;;;;-145.18;100.00;46652.59;5071691;28;19928;-69
2022/08/12 01:11:27;;;;;;;;;;;;;;;-145.18;100.00;46664.31;5070927;28;20104;-70
2022/08/12 01:11:48;;;;;;;;;;;;;;;-145.18;100.00;46549.06;5071373;28;20422;-69
2022/08/12 01:14:13;;;;;;;;;;;;;;;-145.18;100.00;46564.69;5070607;28;19920;-69
2022/08/12 01:16:39;;;;;;;;;;;;;;;-145.18;100.00;46551.00;5070469;28;19974;-69
2022/08/12 01:19:04;;;;;;;;;;;;;;;-145.18;100.00;46570.53;5071518;28;20021;-69
2022/08/12 01:21:55;;;;;;;;;;;;;;;-145.18;100.00;46547.09;5070760;28;20546;-70
2022/08/12 01:24:39;;;;;;;;;;;;;;;-145.18;100.00;46564.69;5071413;28;19920;-69
2022/08/12 01:27:06;;;;;;;;;;;;;;;-145.18;100.00;46551.00;5071294;28;19924;-69
2022/08/12 01:29:33;;;;;;;;;;;;;;;-145.18;100.00;46539.28;5070913;28;20323;-69
2022/08/12 01:32:02;;;;;;;;;;;;;;;-145.18;100.00;46551.00;5071081;28;19936;-69
2022/08/12 01:34:32;;;;;;;;;;;;;;;-145.18;100.00;46543.19;5070971;28;19917;-70
2022/08/12 01:36:59;;;;;;;;;;;;;;;-145.18;100.00;46541.25;5070535;28;19924;-69
2022/08/12 01:39:37;;;;;;;;;;;;;;;-145.18;100.00;46541.25;5071300;28;20628;-69
2022/08/12 01:42:12;;;;;;;;;;;;;;;-145.18;100.00;46545.16;5070832;28;19916;-69
2022/08/12 01:44:38;;;;;;;;;;;;;;;-145.18;100.00;46539.28;5070977;28;20321;-69
2022/08/12 01:47:21;;;;;;;;;;;;;;;-145.18;100.00;46539.28;5070734;28;20028;-69
2022/08/12 01:49:59;;;;;;;;;;;;;;;-145.18;100.00;46541.25;5071041;28;19928;-69
2022/08/12 01:52:33;;;;;;;;;;;;;;;-145.18;100.00;46529.53;5070671;28;20327;-70
2022/08/12 01:54:59;;;;;;;;;;;;;;;-145.18;100.00;46537.34;5069832;28;19917;-69
2022/08/12 01:57:44;;;;;;;;;;;;;;;-145.18;100.00;46527.56;5070417;28;19920;-69
2022/08/12 02:02:56;;;;;;;;;;;;;;;-145.18;100.00;46525.63;5365651;22;20083;-70
2022/08/12 02:11:21;;;;;;;;;;;;;;;-145.18;100.00;46510.00;5031130;28;19923;-69
2022/08/12 02:14:05;;;;;;;;;;;;;;;-145.18;100.00;46506.09;5030427;28;20451;-69
2022/08/12 02:16:30;;;;;;;;;;;;;;;-145.18;100.00;46517.81;5030568;28;20380;-71
2022/08/12 02:18:57;;;;;;;;;;;;;;;-145.18;100.00;46527.56;5030674;28;19921;-70
2022/08/12 02:21:37;;;;;;;;;;;;;;;-145.18;100.00;46508.03;5030807;28;19913;-70
2022/08/12 02:24:04;;;;;;;;;;;;;;;-145.18;100.00;46515.84;5030845;28;19917;-69
2022/08/12 02:26:32;;;;;;;;;;;;;;;-145.18;100.00;46506.09;5033841;28;20281;-72
2022/08/12 02:28:58;;;;;;;;;;;;;;;-145.18;100.00;46508.03;5034698;28;20476;-70
2022/08/12 02:31:25;;;;;;;;;;;;;;;-145.18;100.00;46502.19;5034651;28;20012;-71
2022/08/12 02:33:51;;;;;;;;;;;;;;;-145.18;100.00;46508.03;5034257;28;19921;-69
2022/08/12 02:36:17;;;;;;;;;;;;;;;-145.18;100.00;46498.28;5034694;28;19924;-69
2022/08/12 02:38:43;;;;;;;;;;;;;;;-145.18;100.00;46513.91;5034079;28;19917;-69
2022/08/12 02:41:10;;;;;;;;;;;;;;;-145.18;100.00;46511.94;5034610;28;20435;-70
2022/08/12 02:43:36;;;;;;;;;;;;;;;-145.18;100.00;46506.09;5033930;28;19975;-69
2022/08/12 02:46:09;;;;;;;;;;;;;;;-145.18;100.00;46511.94;5034529;28;19924;-69
2022/08/12 02:48:38;;;;;;;;;;;;;;;-145.18;100.00;46510.00;5033697;28;19918;-70
2022/08/12 02:51:05;;;;;;;;;;;;;;;-145.18;100.00;46500.22;5034328;28;19917;-70
2022/08/12 02:53:31;;;;;;;;;;;;;;;-145.18;100.00;46506.09;5033843;28;20475;-69
2022/08/12 02:55:58;;;;;;;;;;;;;;;-145.18;100.00;46510.00;5034005;28;19925;-69
2022/08/12 02:58:24;;;;;;;;;;;;;;;-145.18;100.00;46506.09;5033950;28;20331;-69
2022/08/12 03:00:50;;;;;;;;;;;;;;;-145.18;100.00;46508.03;5032386;28;20401;-71
2022/08/12 03:03:18;;;;;;;;;;;;;;;-145.18;100.00;46515.84;5033602;28;19941;-69
2022/08/12 03:05:47;;;;;;;;;;;;;;;-145.18;100.00;46500.22;5034090;28;19947;-70
2022/08/12 03:08:14;;;;;;;;;;;;;;;-145.18;100.00;46515.84;5033679;28;19963;-70
2022/08/12 03:10:42;;;;;;;;;;;;;;;-145.18;100.00;46508.03;5033731;28;19924;-70
2022/08/12 03:13:08;;;;;;;;;;;;;;;-145.18;100.00;46502.19;5033924;28;19953;-70
2022/08/12 03:15:34;;;;;;;;;;;;;;;-145.18;100.00;46515.84;5034021;28;19960;-71
2022/08/12 03:18:13;;;;;;;;;;;;;;;-145.18;100.00;46513.91;5033360;28;20370;-70
2022/08/12 03:20:41;;;;;;;;;;;;;;;-145.18;100.00;46510.00;5033763;28;19957;-70
2022/08/12 03:23:13;;;;;;;;;;;;;;;-145.18;100.00;46500.22;5033556;28;20377;-70
2022/08/12 03:25:39;;;;;;;;;;;;;;;-145.18;100.00;46515.84;5033469;28;19917;-69
2022/08/12 03:28:07;;;;;;;;;;;;;;;-145.18;100.00;46510.00;5033288;28;19971;-69
2022/08/12 03:30:32;;;;;;;;;;;;;;;-145.18;100.00;46510.00;5033659;28;20305;-69
2022/08/12 03:32:58;;;;;;;;;;;;;;;-145.18;100.00;46513.91;5033318;28;19917;-69
2022/08/12 03:35:26;;;;;;;;;;;;;;;-145.18;100.00;46513.91;5033599;28;20389;-70
2022/08/12 03:37:57;;;;;;;;;;;;;;;-145.18;100.00;46517.81;5032095;28;20009;-69
2022/08/12 04:02:27;;;;;;;;;;;;;;;-145.18;100.00;46519.75;5032652;28;19975;-70
2022/08/12 04:04:53;;;;;;;;;;;;;;;-145.18;100.00;46523.66;5032933;28;19925;-70
2022/08/12 04:07:18;;;;;;;;;;;;;;;-145.18;100.00;46531.47;5032705;28;19924;-69
2022/08/12 04:09:45;;;;;;;;;;;;;;;-145.18;100.00;46535.38;5032726;28;19960;-70
2022/08/12 04:15:07;;;;;;;;;;;;;;;-145.18;100.00;46535.38;4961700;28;19922;-69
2022/08/12 04:17:33;;;;;;;;;;;;;;;-145.18;100.00;46535.38;5032590;28;20274;-70
2022/08/12 04:19:59;;;;;;;;;;;;;;;-145.18;100.00;46535.38;5032642;28;20353;-70
2022/08/12 04:22:28;;;;;;;;;;;;;;;-145.18;100.00;46535.38;5032387;28;20059;-70
2022/08/12 04:24:53;;;;;;;;;;;;;;;-145.18;100.00;46556.88;5032406;28;19943;-69
2022/08/12 04:27:18;;;;;;;;;;;;;;;-145.18;100.00;46562.72;5032292;28;19921;-69
2022/08/12 04:29:44;;;;;;;;;;;;;;;-145.18;100.00;46572.50;5032126;28;19988;-70
2022/08/12 04:32:09;;;;;;;;;;;;;;;-145.18;100.00;46613.50;5032262;28;20369;-69
2022/08/12 04:34:37;;;;;;;;;;;;;;;-145.18;100.00;46656.50;5032362;28;19921;-70
2022/08/12 04:37:02;;;;;;;;;;;;;;;-145.18;100.00;46636.94;5032021;28;19917;-69
2022/08/12 04:39:28;;;;;;;;;;;;;;;-145.18;100.00;46640.88;5032264;28;19928;-70
2022/08/12 04:41:53;;;;;;;;;;;;;;;-145.18;100.00;46660.41;5031998;28;19923;-70
2022/08/12 04:44:19;;;;;;;;;;;;;;;-145.18;100.00;46635.00;5031983;28;19975;-69
2022/08/12 04:46:44;;;;;;;;;;;;;;;-145.18;100.00;46660.41;5031820;28;20591;-69
2022/08/12 04:49:09;;;;;;;;;;;;;;;-145.18;100.00;46660.41;5031667;28;19917;-70
2022/08/12 04:51:35;;;;;;;;;;;;;;;-145.18;100.00;46638.91;5032247;28;19921;-70
2022/08/12 04:54:01;;;;;;;;;;;;;;;-145.18;100.00;46636.94;5031540;28;20003;-69
2022/08/12 04:56:28;;;;;;;;;;;;;;;-145.18;100.00;46638.91;5031743;28;19925;-70
2022/08/12 04:58:54;;;;;;;;;;;;;;;-145.18;100.00;46638.91;5031484;28;20385;-70
2022/08/12 05:01:19;;;;;;;;;;;;;;;-145.18;100.00;46640.88;5031809;28;19982;-69
2022/08/12 05:03:45;;;;;;;;;;;;;;;-145.18;100.00;46660.41;5031123;28;19936;-70
2022/08/12 05:06:10;;;;;;;;;;;;;;;-145.18;100.00;46644.78;5031804;28;20004;-70
2022/08/12 05:08:35;;;;;;;;;;;;;;;-145.18;100.00;46638.91;5031267;28;19928;-70
2022/08/12 05:11:01;;;;;;;;;;;;;;;-145.18;100.00;46642.81;5031373;28;20059;-70
2022/08/12 05:13:28;;;;;;;;;;;;;;;-145.18;100.00;46644.78;5031336;28;19917;-69
2022/08/12 05:15:53;;;;;;;;;;;;;;;-145.18;100.00;46644.78;5031388;28;19917;-69
2022/08/12 05:18:20;;;;;;;;;;;;;;;-145.18;100.00;46638.91;5031103;28;20321;-69
2022/08/12 05:20:47;;;;;;;;;;;;;;;-145.18;100.00;46648.69;5031426;28;20297;-70
2022/08/12 05:23:16;;;;;;;;;;;;;;;-145.18;100.00;46635.00;5031484;28;19932;-69
2022/08/12 05:25:43;;;;;;;;;;;;;;;-145.18;100.00;46660.41;5031269;28;20004;-70
2022/08/12 05:28:08;;;;;;;;;;;;;;;-145.18;100.00;46660.41;5031055;28;19960;-70
2022/08/12 05:30:34;;;;;;;;;;;;;;;-145.18;100.00;46635.00;5031419;28;19995;-70
2022/08/12 05:33:04;;;;;;;;;;;;;;;-145.18;100.00;46633.06;5030780;28;20374;-70
2022/08/12 05:35:29;;;;;;;;;;;;;;;-145.18;100.00;46660.41;5031316;28;19924;-70
2022/08/12 05:40:38;;;;;;;;;;;;;;;-145.18;100.00;46629.13;5031298;28;20304;-70
2022/08/12 05:43:05;;;;;;;;;;;;;;;-145.18;100.00;46572.50;5030942;28;19921;-70
2022/08/12 05:45:30;;;;;;;;;;;;;;;-145.18;100.00;46568.59;5031163;28;19919;-69
2022/08/12 05:47:55;;;;;;;;;;;;;;;-145.18;100.00;46578.34;5030737;28;19931;-70
2022/08/12 05:50:21;;;;;;;;;;;;;;;-145.18;100.00;46627.19;5031158;28;20467;-70
2022/08/12 05:52:47;;;;;;;;;;;;;;;-145.18;100.00;46623.28;5030378;28;20372;-70
2022/08/12 05:55:12;;;;;;;;;;;;;;;-145.18;100.00;46568.59;5031126;28;19940;-70
2022/08/12 05:57:37;;;;;;;;;;;;;;;-145.18;100.00;46549.06;5030724;28;19917;-70
2022/08/12 06:00:04;;;;;;;;;;;;;;;-145.18;100.00;46543.19;5030859;28;19928;-70
2022/08/12 06:02:29;;;;;;;;;;;;;;;-145.18;100.00;46547.09;5030361;28;19921;-70
2022/08/12 06:04:59;;;;;;;;;;;;;;;-145.18;100.00;46541.25;5030930;28;19925;-70
2022/08/12 06:07:24;;;;;;;;;;;;;;;-145.18;100.00;46537.34;5030687;28;19917;-69
2022/08/12 06:09:49;;;;;;;;;;;;;;;-145.18;100.00;46531.47;5030763;28;19921;-70
2022/08/12 06:12:16;;;;;;;;;;;;;;;-145.18;100.00;46543.19;5030839;28;20398;-70
2022/08/12 06:14:43;;;;;;;;;;;;;;;-145.18;100.00;46533.44;5030512;28;19921;-69
2022/08/12 06:17:09;;;;;;;;;;;;;;;-145.18;100.00;46529.53;5030644;28;19925;-70
2022/08/12 06:19:34;;;;;;;;;;;;;;;-145.18;100.00;46529.53;5030211;28;19925;-70
2022/08/12 06:21:59;;;;;;;;;;;;;;;-145.18;100.00;46527.56;5030574;28;19925;-70
2022/08/12 06:24:27;;;;;;;;;;;;;;;-145.18;100.00;46523.66;5030416;28;19969;-70
2022/08/12 06:26:52;;;;;;;;;;;;;;;-145.18;100.00;46517.81;5030832;28;19929;-69
2022/08/12 06:29:18;;;;;;;;;;;;;;;-145.18;100.00;46513.91;5030407;28;20495;-69
2022/08/12 06:31:45;;;;;;;;;;;;;;;-145.18;100.00;46519.75;5030387;28;19925;-70
2022/08/12 06:34:13;;;;;;;;;;;;;;;-145.18;100.00;46511.94;5030330;28;19960;-70
2022/08/12 06:36:39;;;;;;;;;;;;;;;-145.18;100.00;46506.09;5030870;28;20328;-70
2022/08/12 06:39:04;;;;;;;;;;;;;;;-145.18;100.00;46508.03;5030308;28;19921;-69
2022/08/12 06:44:19;;;;;;;;;;;;;;;-145.18;100.00;46506.09;5030646;28;19996;-70
2022/08/12 06:46:45;;;;;;;;;;;;;;;-145.18;100.00;46513.91;5030560;28;20285;-70
2022/08/12 06:49:11;;;;;;;;;;;;;;;-145.18;100.00;46510.00;5030201;28;19917;-70
2022/08/12 06:51:37;;;;;;;;;;;;;;;-145.18;100.00;46500.22;5030649;28;19924;-70
2022/08/12 06:54:02;;;;;;;;;;;;;;;-145.18;100.00;46515.84;5029817;28;19921;-70
2022/08/12 06:56:28;;;;;;;;;;;;;;;-145.18;100.00;46510.00;5030629;28;19921;-70
2022/08/12 06:58:54;;;;;;;;;;;;;;;-145.18;100.00;46496.31;5029799;28;19917;-70
2022/08/12 07:01:19;;;;;;;;;;;;;;;-145.18;100.00;46510.00;5030222;28;19921;-70
2022/08/12 07:03:45;;;;;;;;;;;;;;;-145.18;100.00;46511.94;5029600;28;19940;-70
2022/08/12 07:06:11;;;;;;;;;;;;;;;-145.18;100.00;46504.13;5030538;28;19921;-70
2022/08/12 07:08:37;;;;;;;;;;;;;;;-145.18;100.00;46504.13;5030097;28;19917;-70
2022/08/12 07:11:08;;;;;;;;;;;;;;;-145.18;100.00;46498.28;5030288;28;20012;-70
2022/08/12 07:13:44;;;;;;;;;;;;;;;-145.18;100.00;46510.00;5032910;28;19966;-70
2022/08/12 07:16:12;;;;;;;;;;;;;;;-145.18;100.00;46502.19;5034018;28;20008;-70
2022/08/12 07:18:37;;;;;;;;;;;;;;;-145.18;100.00;46504.13;5033372;28;20290;-71
2022/08/12 07:21:04;;;;;;;;;;;;;;;-145.18;100.00;46496.31;5033878;28;19924;-70
2022/08/12 07:23:30;;;;;;;;;;;;;;;-145.18;100.00;46492.41;5032102;28;19920;-70
2022/08/12 07:25:56;;;;;;;;;;;;;;;-145.18;100.00;46502.19;5033456;28;19920;-70
2022/08/12 07:28:23;;;;;;;;;;;;;;;-145.18;100.00;46504.13;5033186;28;19940;-70
2022/08/12 07:30:49;;;;;;;;;;;;;;;-145.18;100.00;46500.22;5033405;28;20114;-70
2022/08/12 07:33:16;;;;;;;;;;;;;;;-145.18;100.00;46498.28;5033269;28;19924;-71
2022/08/12 07:35:44;;;;;;;;;;;;;;;-145.18;100.00;46486.56;5033369;28;19914;-71
2022/08/12 07:38:25;;;;;;;;;;;;;;;-145.18;100.00;46472.88;5033061;28;20373;-71
2022/08/12 07:40:55;;;;;;;;;;;;;;;-145.18;100.00;46500.22;5033200;28;19925;-71
2022/08/12 07:43:20;;;;;;;;;;;;;;;-145.18;100.00;46494.38;5033212;28;19923;-71
2022/08/12 07:45:45;;;;;;;;;;;;;;;-145.18;100.00;46498.28;5033206;28;19925;-70
2022/08/12 07:48:11;;;;;;;;;;;;;;;-145.18;100.00;46472.88;5032863;28;19921;-71
2022/08/12 07:50:36;;;;;;;;;;;;;;;-145.18;100.00;46486.56;5033227;28;20016;-71
2022/08/12 07:53:01;;;;;;;;;;;;;;;-145.18;100.00;46500.22;5032675;28;20270;-71
2022/08/12 07:55:27;;;;;;;;;;;;;;;-145.18;100.00;46508.03;5033084;28;20320;-71
2022/08/12 07:57:58;;;;;;;;;;;;;;;-145.18;100.00;46500.22;5031230;28;20473;-70
2022/08/12 08:00:24;;;;;;;;;;;;;;;-145.18;100.00;46508.03;5033219;28;20431;-71
2022/08/12 08:02:52;;;;;;;;;;;;;;;-145.18;100.00;46486.56;5032045;28;20013;-71
2022/08/12 08:05:18;;;;;;;;;;;;;;;-145.18;100.00;46490.47;5033005;28;19921;-71
2022/08/12 08:07:43;;;;;;;;;;;;;;;-145.18;100.00;46478.75;5032764;28;19921;-70
2022/08/12 08:10:10;;;;;;;;;;;;;;;-145.18;100.00;46478.75;5033113;28;20400;-71
2022/08/12 08:12:55;;;;;;;;;;;;;;;-145.18;100.00;46484.59;5032656;28;19944;-71
2022/08/12 08:15:29;;;;;;;;;;;;;;;-145.18;100.00;46486.56;5032767;28;20366;-72
2022/08/12 08:18:01;;;;;;;;;;;;;;;-145.18;100.00;46537.34;5032541;28;19917;-71
2022/08/12 08:20:28;;;;;;;;;;;;;;;-145.18;100.00;46677.97;5032622;28;19990;-71
2022/08/12 08:22:55;;;;;;;;;;;;;;;-145.18;100.00;46969.03;5031580;28;19917;-71
2022/08/12 08:25:21;;;;;;;;;;;;;;;-145.18;100.00;46922.16;5032440;28;19917;-71
2022/08/12 08:27:46;;;;;;;;;;;;;;;-145.18;100.00;46969.03;5032029;28;19921;-72
2022/08/12 08:30:12;;;;;;;;;;;;;;;-145.18;100.00;47051.09;5032562;28;20366;-72
2022/08/12 08:32:38;;;;;;;;;;;;;;;-145.18;100.00;47043.28;5032188;28;20000;-71
2022/08/12 08:35:04;;;;;;;;;;;;;;;-145.18;100.00;47068.66;5030906;28;20007;-71
2022/08/12 08:37:30;;;;;;;;;;;;;;;-145.18;100.00;47004.19;5032262;28;19925;-71
2022/08/12 08:42:35;;;;;;;;;;;;;;;-145.18;100.00;47033.50;5031546;28;20503;-71
2022/08/12 08:42:41;;;;;;;;;;;;;;;-145.18;100.00;46996.38;5030993;28;19921;-71
2022/08/12 08:45:11;;;;;;;;;;;;;;;-145.18;100.00;46986.63;5031833;28;20458;-72
2022/08/12 08:47:43;;;;;;;;;;;;;;;-145.18;100.00;46988.56;5032066;28;19922;-71
2022/08/12 08:50:09;;;;;;;;;;;;;;;-145.18;100.00;46982.72;5031799;28;19929;-71
2022/08/12 08:52:36;;;;;;;;;;;;;;;-145.18;100.00;46955.34;5032121;28;19917;-72
2022/08/12 08:55:01;;;;;;;;;;;;;;;-145.18;100.00;46937.78;5031440;28;19952;-71
2022/08/12 08:57:27;;;;;;;;;;;;;;;-145.18;100.00;46943.63;5031769;28;19961;-72
2022/08/12 08:59:52;;;;;;;;;;;;;;;-145.18;100.00;46935.81;5031134;28;19921;-71
2022/08/12 09:02:18;;;;;;;;;;;;;;;-145.18;100.00;46931.91;5031698;28;20047;-71
2022/08/12 09:04:44;;;;;;;;;;;;;;;-145.18;100.00;46920.19;5031569;28;19924;-71
2022/08/12 09:07:11;;;;;;;;;;;;;;;-145.18;100.00;46912.38;5031790;28;19921;-71
2022/08/12 09:09:36;;;;;;;;;;;;;;;-145.18;100.00;46914.34;5031382;28;20019;-72
2022/08/12 09:14:47;;;;;;;;;;;;;;;-145.18;100.00;46916.28;5031293;28;19990;-72
2022/08/12 09:17:12;;;;;;;;;;;;;;;-145.18;100.00;46902.63;5031714;28;20286;-72
2022/08/12 09:19:38;;;;;;;;;;;;;;;-145.18;100.00;46906.53;5031247;28;19921;-72
2022/08/12 09:22:03;;;;;;;;;;;;;;;-145.18;100.00;46908.47;5031295;28;19925;-72
2022/08/12 09:24:29;;;;;;;;;;;;;;;-145.18;100.00;46904.56;5030980;28;19929;-72
2022/08/12 09:26:54;;;;;;;;;;;;;;;-145.18;100.00;46898.72;5031189;28;20423;-72
2022/08/12 09:29:20;;;;;;;;;;;;;;;-145.18;100.00;46890.91;5030985;28;20020;-72
2022/08/12 09:31:46;;;;;;;;;;;;;;;-145.18;100.00;46885.03;5031300;28;20738;-72
2022/08/12 09:34:12;;;;;;;;;;;;;;;-145.18;100.00;46894.81;5030582;28;20035;-72
2022/08/12 09:36:37;;;;;;;;;;;;;;;-145.18;100.00;46900.66;5030788;28;20381;-72
2022/08/12 09:39:03;;;;;;;;;;;;;;;-145.18;100.00;46900.66;5030767;28;19925;-72
2022/08/12 09:41:36;;;;;;;;;;;;;;;-145.18;100.00;46885.03;5031269;28;19921;-72
2022/08/12 09:46:45;;;;;;;;;;;;;;;-145.18;100.00;46883.09;5031127;28;19987;-72
2022/08/12 09:49:10;;;;;;;;;;;;;;;-145.18;100.00;46887.00;5030794;28;20373;-72
2022/08/12 09:51:36;;;;;;;;;;;;;;;-145.18;100.00;46887.00;5031141;28;20443;-72
2022/08/12 09:54:01;;;;;;;;;;;;;;;-145.18;100.00;46879.19;5030399;28;19917;-72
2022/08/12 09:56:30;;;;;;;;;;;;;;;-145.18;100.00;46867.44;5031002;28;19968;-72
2022/08/12 09:58:56;;;;;;;;;;;;;;;-145.18;100.00;46873.31;5030422;28;19917;-72
2022/08/12 10:01:22;;;;;;;;;;;;;;;-145.18;100.00;46875.28;5031086;28;19947;-72
2022/08/12 10:03:48;;;;;;;;;;;;;;;-145.18;100.00;46871.38;5030250;28;20366;-72
2022/08/12 10:06:13;;;;;;;;;;;;;;;-145.18;100.00;46871.38;5030797;28;19917;-72
2022/08/12 10:08:39;;;;;;;;;;;;;;;-145.18;100.00;46877.22;5030653;28;19925;-72
2022/08/12 10:13:49;;;;;;;;;;;;;;;-145.18;100.00;46869.41;5030568;28;19928;-72
2022/08/12 10:16:19;;;;;;;;;;;;;;;-145.18;100.00;46859.63;5030959;28;20060;-72
2022/08/12 10:18:55;;;;;;;;;;;;;;;-145.18;100.00;46855.72;5030368;28;20023;-72
2022/08/12 10:21:20;;;;;;;;;;;;;;;-145.18;100.00;46844.00;5031003;28;19923;-72
2022/08/12 10:23:47;;;;;;;;;;;;;;;-145.18;100.00;46838.16;5030397;28;19917;-72
2022/08/12 10:31:44;;;;;;;;;;;;;;;-145.18;92.23;46845.97;5031144;28;19924;-72
2022/08/12 10:34:10;;;;;;;;;;;;;;;-145.18;82.81;46847.91;5030076;28;19944;-72
2022/08/12 10:36:39;;;;;;;;;;;;;;;-145.18;85.79;46842.06;5030492;28;19925;-72
2022/08/12 10:39:08;;;;;;;;;;;;;;;-145.18;81.67;46842.06;5030168;28;20305;-72
2022/08/12 10:44:17;;;;;;;;;;;;;;;-145.18;88.72;46847.91;5030710;28;19929;-72
2022/08/12 10:46:46;;;;;;;;;;;;;;;-145.18;91.55;46832.28;5032355;28;19917;-72
2022/08/12 10:49:11;;;;;;;;;;;;;;;-145.18;80.06;46844.00;5033809;28;19922;-72
2022/08/12 10:51:39;;;;;;;;;;;;;;;-145.18;74.53;46826.44;5034233;28;19939;-73
2022/08/12 10:54:05;;;;;;;;;;;;;;;-145.18;74.87;46830.34;5033850;28;19917;-72
2022/08/12 10:56:35;;;;;;;;;;;;;;;-145.18;73.00;46816.66;5032606;28;20444;-72
2022/08/12 10:59:02;;;;;;;;;;;;;;;-145.18;67.67;46820.56;5033694;28;19921;-72
2022/08/12 11:01:30;;;;;;;;;;;;;;;-145.18;71.41;46820.56;5034408;28;19913;-72
2022/08/12 11:03:55;;;;;;;;;;;;;;;-145.18;71.49;46822.53;5032142;28;20389;-72
2022/08/12 11:06:20;;;;;;;;;;;;;;;-145.18;74.93;46820.56;5034161;28;19975;-72
2022/08/12 11:08:46;;;;;;;;;;;;;;;-145.18;67.27;46812.75;5033511;28;19933;-72
2022/08/12 11:11:16;;;;;;;;;;;;;;;-145.18;72.60;46820.56;5033905;28;19925;-72
2022/08/12 11:13:42;;;;;;;;;;;;;;;-145.18;71.85;46822.53;5033529;28;19921;-72
2022/08/12 11:16:07;;;;;;;;;;;;;;;-145.18;70.98;46814.72;5033925;28;20385;-72
2022/08/12 11:18:32;;;;;;;;;;;;;;;-145.18;68.21;46820.56;5033459;28;19924;-72
2022/08/12 11:20:58;;;;;;;;;;;;;;;-145.18;72.38;46812.75;5033535;28;19917;-73
2022/08/12 11:23:23;;;;;;;;;;;;;;;-145.18;68.74;46820.56;5033482;28;19921;-72
2022/08/12 11:25:49;;;;;;;;;;;;;;;-145.18;69.61;46812.75;5033388;28;19952;-72
2022/08/12 11:28:14;;;;;;;;;;;;;;;-145.18;69.57;46810.81;5033768;28;20392;-72
2022/08/12 11:30:40;;;;;;;;;;;;;;;-145.18;68.01;46810.81;5033371;28;20011;-72
2022/08/12 11:33:06;;;;;;;;;;;;;;;-145.18;66.38;46808.84;5033364;28;20028;-73
2022/08/12 11:35:31;;;;;;;;;;;;;;;-145.18;66.48;46810.81;5033243;28;19924;-72
2022/08/12 11:37:58;;;;;;;;;;;;;;;-145.18;64.36;46804.94;5033315;28;19972;-72
2022/08/12 11:40:24;;;;;;;;;;;;;;;-145.18;64.17;46799.09;5033284;28;20428;-72
2022/08/12 11:42:50;;;;;;;;;;;;;;;-145.18;63.48;46797.13;5033048;28;19929;-72
2022/08/12 11:45:15;;;;;;;;;;;;;;;-145.18;58.56;46810.81;5033398;28;20391;-72
2022/08/12 11:47:40;;;;;;;;;;;;;;;-145.18;59.92;46812.75;5033736;28;19917;-72
2022/08/12 11:50:06;;;;;;;;;;;;;;;-145.18;59.91;46806.91;5032564;28;19956;-72
2022/08/12 11:52:31;;;;;;;;;;;;;;;-145.18;61.22;46797.13;5033219;28;20573;-72
2022/08/12 11:54:57;;;;;;;;;;;;;;;-145.18;58.71;46804.94;5032680;28;20012;-73
2022/08/12 11:57:22;;;;;;;;;;;;;;;-145.18;54.70;46799.09;5032676;28;19917;-72
2022/08/12 11:59:47;;;;;;;;;;;;;;;-145.18;56.24;46812.75;5032432;28;19975;-72
2022/08/12 12:02:13;;;;;;;;;;;;;;;-145.18;53.11;46793.22;5032423;28;19929;-72
2022/08/12 12:04:38;;;;;;;;;;;;;;;-145.18;50.37;46791.28;5032636;28;20392;-72
2022/08/12 12:07:03;;;;;;;;;;;;;;;-145.18;48.36;46791.28;5032767;28;19975;-72
2022/08/12 12:09:28;;;;;;;;;;;;;;;-145.18;49.87;46775.66;5032526;28;19975;-72
2022/08/12 12:11:54;;;;;;;;;;;;;;;-145.18;51.82;46775.66;5032579;28;20297;-72
2022/08/12 12:14:19;;;;;;;;;;;;;;;-145.18;45.62;46779.56;5032482;28;20027;-72
2022/08/12 12:16:44;;;;;;;;;;;;;;;-145.18;47.98;46773.69;5032849;28;20008;-73
2022/08/12 12:19:09;;;;;;;;;;;;;;;-145.18;50.31;46765.88;5032249;28;20416;-73
2022/08/12 12:21:35;;;;;;;;;;;;;;;-145.18;48.63;46761.97;5032656;28;20127;-72
2022/08/12 12:24:01;;;;;;;;;;;;;;;-145.18;48.95;46760.00;5031955;28;20473;-74
2022/08/12 12:26:26;;;;;;;;;;;;;;;-145.18;48.21;46785.41;5032678;28;19921;-72
2022/08/12 12:28:51;;;;;;;;;;;;;;;-145.18;51.83;46785.41;5032011;28;20308;-73
2022/08/12 12:31:16;;;;;;;;;;;;;;;-145.18;51.37;46793.22;5032297;28;19929;-73
2022/08/12 12:33:42;;;;;;;;;;;;;;;-145.18;50.26;46801.03;5032165;28;19925;-73
2022/08/12 12:36:07;;;;;;;;;;;;;;;-145.18;52.72;46797.13;5032342;28;19925;-73
2022/08/12 12:38:33;;;;;;;;;;;;;;;-145.18;47.85;46789.31;5032040;28;19975;-72
2022/08/12 12:40:58;;;;;;;;;;;;;;;-145.18;52.98;46787.38;5031994;28;19921;-73
2022/08/12 12:43:23;;;;;;;;;;;;;;;-145.18;49.72;46785.41;5032266;28;20389;-73
2022/08/12 12:45:49;;;;;;;;;;;;;;;-145.18;49.18;46789.31;5032081;28;19944;-73
2022/08/12 12:48:16;;;;;;;;;;;;;;;-145.18;51.75;46785.41;5030449;28;19979;-73
2022/08/12 12:51:14;;;;;;;;;;;;;;;-145.18;52.90;46797.13;5032127;28;19979;-73
2022/08/12 12:53:39;;;;;;;;;;;;;;;-145.18;50.16;46791.28;5031819;28;19920;-74
2022/08/12 12:56:05;;;;;;;;;;;;;;;-145.18;47.91;46771.75;5031913;28;20286;-73
2022/08/12 12:58:30;;;;;;;;;;;;;;;-145.18;47.44;46777.59;5031651;28;20008;-73
2022/08/12 13:01:00;;;;;;;;;;;;;;;-145.18;52.49;46777.59;5031328;28;20032;-73
2022/08/12 13:03:25;;;;;;;;;;;;;;;-145.18;50.90;46777.59;5029650;28;20470;-73
2022/08/12 13:05:51;;;;;;;;;;;;;;;-145.18;45.30;46775.66;5031480;28;19929;-73
2022/08/12 13:08:23;;;;;;;;;;;;;;;-145.18;45.61;46775.66;5031637;28;19929;-73
2022/08/12 13:10:50;;;;;;;;;;;;;;;-145.18;45.74;46781.50;5031308;28;19945;-73
2022/08/12 13:13:17;;;;;;;;;;;;;;;-145.18;48.54;46783.47;5031640;28;19952;-73
2022/08/12 13:15:43;;;;;;;;;;;;;;;-145.18;48.86;46775.66;5031285;28;20393;-73
2022/08/12 13:18:08;;;;;;;;;;;;;;;-145.18;46.39;46779.56;5031406;28;19928;-73
2022/08/12 13:20:33;;;;;;;;;;;;;;;-145.18;45.56;46781.50;5031227;28;20343;-73
2022/08/12 13:22:58;;;;;;;;;;;;;;;-145.18;43.33;46771.75;5031344;28;20335;-73
2022/08/12 13:25:25;;;;;;;;;;;;;;;-145.18;41.79;46748.28;5031218;28;20343;-74
2022/08/12 13:27:50;;;;;;;;;;;;;;;-145.18;44.94;46771.75;5031482;28;19924;-74
2022/08/12 13:30:19;;;;;;;;;;;;;;;-145.18;43.00;46765.88;5030943;28;19925;-74
2022/08/12 13:32:49;;;;;;;;;;;;;;;-145.18;46.06;46765.88;5031384;28;19999;-74
2022/08/12 13:35:15;;;;;;;;;;;;;;;-145.18;43.02;46750.25;5030852;28;19913;-74
2022/08/12 13:37:41;;;;;;;;;;;;;;;-145.18;44.00;46756.09;5031187;28;19921;-73
2022/08/12 13:40:09;;;;;;;;;;;;;;;-145.18;42.33;46761.97;5029980;28;20309;-73
2022/08/12 13:42:35;;;;;;;;;;;;;;;-145.18;40.26;46750.25;5031240;28;19921;-73
2022/08/12 13:45:00;;;;;;;;;;;;;;;-145.18;42.18;46765.88;5030546;28;19987;-73
2022/08/12 13:47:25;;;;;;;;;;;;;;;-145.18;45.12;46761.97;5031271;28;20435;-73
2022/08/12 13:49:51;;;;;;;;;;;;;;;-145.18;42.39;46760.00;5030982;28;20378;-72
2022/08/12 13:52:17;;;;;;;;;;;;;;;-145.18;45.23;46767.84;5030745;28;19929;-73
2022/08/12 13:54:45;;;;;;;;;;;;;;;-145.18;42.07;46771.75;5030520;28;19917;-73
2022/08/12 13:57:13;;;;;;;;;;;;;;;-145.18;41.43;46765.88;5031029;28;19928;-72
2022/08/12 13:59:40;;;;;;;;;;;;;;;-145.18;43.78;46775.66;5030542;28;20008;-73
2022/08/12 14:02:05;;;;;;;;;;;;;;;-145.18;45.52;46773.69;5030635;28;19956;-72
2022/08/12 14:04:30;;;;;;;;;;;;;;;-145.18;42.31;46773.69;5030574;28;19968;-73
2022/08/12 14:06:57;;;;;;;;;;;;;;;-145.18;40.26;46750.25;5030797;28;19925;-73